sensor_id;sensor_type;location;lat;lon;timestamp;temperature;humidity
15554;DHT22;7878;44.632;10.942;2022-08-21T00:01:12;26.20;99.90
15554;DHT22;7878;44.632;10.942;2022-08-21T00:03:38;26.20;99.90
15554;DHT22;7878;44.632;10.942;2022-08-21T00:06:04;26.20;99.90
15554;DHT22;7878;44.632;10.942;2022-08-21T00:08:30;26.20;99.90
15554;DHT22;7878;44.632;10.942;2022-08-21T00:10:56;26.10;99.90
15554;DHT22;7878;44.632;10.942;2022-08-21T00:13:21;26.10;99.90
15554;DHT22;7878;44.632;10.942;2022-08-21T00:15:48;26.10;99.90
15554;DHT22;7878;44.632;10.942;2022-08-21T00:18:15;26.10;99.90
15554;DHT22;7878;44.632;10.942;2022-08-21T00:20:42;26.00;99.90
15554;DHT22;7878;44.632;10.942;2022-08-21T00:23:09;26.00;99.90
15554;DHT22;7878;44.632;10.942;2022-08-21T00:25:35;26.00;99.90
15554;DHT22;7878;44.632;10.942;2022-08-21T00:28:01;25.90;99.90
15554;DHT22;7878;44.632;10.942;2022-08-21T00:30:27;25.90;99.90
15554;DHT22;7878;44.632;10.942;2022-08-21T00:32:54;25.90;99.90
15554;DHT22;7878;44.632;10.942;2022-08-21T00:35:26;25.90;99.90
15554;DHT22;7878;44.632;10.942;2022-08-21T00:37:51;25.90;99.90
15554;DHT22;7878;44.632;10.942;2022-08-21T00:40:22;25.90;99.90
15554;DHT22;7878;44.632;10.942;2022-08-21T00:42:48;25.90;99.90
15554;DHT22;7878;44.632;10.942;2022-08-21T00:45:15;25.90;99.90
15554;DHT22;7878;44.632;10.942;2022-08-21T00:47:41;25.90;99.90
15554;DHT22;7878;44.632;10.942;2022-08-21T00:50:09;25.90;99.90
15554;DHT22;7878;44.632;10.942;2022-08-21T00:52:37;25.80;99.90
15554;DHT22;7878;44.632;10.942;2022-08-21T00:55:05;25.80;99.90
15554;DHT22;7878;44.632;10.942;2022-08-21T00:57:40;25.70;99.90
15554;DHT22;7878;44.632;10.942;2022-08-21T01:00:10;25.70;99.90
15554;DHT22;7878;44.632;10.942;2022-08-21T01:02:36;25.70;99.90
15554;DHT22;7878;44.632;10.942;2022-08-21T01:05:04;25.70;99.90
15554;DHT22;7878;44.632;10.942;2022-08-21T01:07:30;25.70;99.90
15554;DHT22;7878;44.632;10.942;2022-08-21T01:09:56;25.70;99.90
15554;DHT22;7878;44.632;10.942;2022-08-21T01:12:23;25.70;99.90
15554;DHT22;7878;44.632;10.942;2022-08-21T01:14:48;25.60;99.90
15554;DHT22;7878;44.632;10.942;2022-08-21T01:17:15;25.60;99.90
15554;DHT22;7878;44.632;10.942;2022-08-21T01:19:42;25.60;99.90
15554;DHT22;7878;44.632;10.942;2022-08-21T01:22:08;25.60;99.90
15554;DHT22;7878;44.632;10.942;2022-08-21T01:24:35;25.60;99.90
15554;DHT22;7878;44.632;10.942;2022-08-21T01:27:01;25.50;99.90
15554;DHT22;7878;44.632;10.942;2022-08-21T01:30:34;25.60;99.90
15554;DHT22;7878;44.632;10.942;2022-08-21T01:32:29;25.50;99.90
15554;DHT22;7878;44.632;10.942;2022-08-21T01:34:54;25.50;99.90
15554;DHT22;7878;44.632;10.942;2022-08-21T01:37:21;25.50;99.90
15554;DHT22;7878;44.632;10.942;2022-08-21T01:39:46;25.50;99.90
15554;DHT22;7878;44.632;10.942;2022-08-21T01:42:13;25.50;99.90
15554;DHT22;7878;44.632;10.942;2022-08-21T01:44:39;25.50;99.90
15554;DHT22;7878;44.632;10.942;2022-08-21T01:47:08;25.50;99.90
15554;DHT22;7878;44.632;10.942;2022-08-21T01:49:36;25.50;99.90
15554;DHT22;7878;44.632;10.942;2022-08-21T01:52:02;25.40;99.90
15554;DHT22;7878;44.632;10.942;2022-08-21T01:54:28;25.40;99.90
15554;DHT22;7878;44.632;10.942;2022-08-21T01:56:54;25.30;99.90
15554;DHT22;7878;44.632;10.942;2022-08-21T01:59:22;25.30;99.90
15554;DHT22;7878;44.632;10.942;2022-08-21T02:01:49;25.30;99.90
15554;DHT22;7878;44.632;10.942;2022-08-21T02:04:15;25.30;99.90
15554;DHT22;7878;44.632;10.942;2022-08-21T02:06:41;25.30;99.90
15554;DHT22;7878;44.632;10.942;2022-08-21T02:09:09;25.30;99.90
15554;DHT22;7878;44.632;10.942;2022-08-21T02:11:35;25.30;99.90
15554;DHT22;7878;44.632;10.942;2022-08-21T02:14:01;25.30;99.90
15554;DHT22;7878;44.632;10.942;2022-08-21T02:16:27;25.30;99.90
15554;DHT22;7878;44.632;10.942;2022-08-21T02:18:52;25.20;99.90
15554;DHT22;7878;44.632;10.942;2022-08-21T02:21:18;25.30;99.90
15554;DHT22;7878;44.632;10.942;2022-08-21T02:23:44;25.30;99.90
15554;DHT22;7878;44.632;10.942;2022-08-21T02:26:10;25.20;99.90
15554;DHT22;7878;44.632;10.942;2022-08-21T02:28:36;25.20;99.90
15554;DHT22;7878;44.632;10.942;2022-08-21T02:31:03;25.20;99.90
15554;DHT22;7878;44.632;10.942;2022-08-21T02:33:28;25.20;99.90
15554;DHT22;7878;44.632;10.942;2022-08-21T02:35:56;25.10;99.90
15554;DHT22;7878;44.632;10.942;2022-08-21T02:38:25;25.10;99.90
15554;DHT22;7878;44.632;10.942;2022-08-21T02:40:52;25.10;99.90
15554;DHT22;7878;44.632;10.942;2022-08-21T02:43:20;25.10;99.90
15554;DHT22;7878;44.632;10.942;2022-08-21T02:45:47;25.10;99.90
15554;DHT22;7878;44.632;10.942;2022-08-21T02:48:17;25.10;99.90
15554;DHT22;7878;44.632;10.942;2022-08-21T02:50:48;25.10;99.90
15554;DHT22;7878;44.632;10.942;2022-08-21T02:53:15;25.00;99.90
15554;DHT22;7878;44.632;10.942;2022-08-21T02:55:45;25.10;99.90
15554;DHT22;7878;44.632;10.942;2022-08-21T02:58:13;25.00;99.90
15554;DHT22;7878;44.632;10.942;2022-08-21T03:00:39;25.00;99.90
15554;DHT22;7878;44.632;10.942;2022-08-21T03:03:05;25.00;99.90
15554;DHT22;7878;44.632;10.942;2022-08-21T03:05:33;25.00;99.90
15554;DHT22;7878;44.632;10.942;2022-08-21T03:08:00;25.00;99.90
15554;DHT22;7878;44.632;10.942;2022-08-21T03:10:27;25.00;99.90
15554;DHT22;7878;44.632;10.942;2022-08-21T03:12:53;24.90;99.90
15554;DHT22;7878;44.632;10.942;2022-08-21T03:15:21;24.90;99.90
15554;DHT22;7878;44.632;10.942;2022-08-21T03:17:49;24.90;99.90
15554;DHT22;7878;44.632;10.942;2022-08-21T03:20:19;24.80;99.90
15554;DHT22;7878;44.632;10.942;2022-08-21T03:22:45;24.80;99.90
15554;DHT22;7878;44.632;10.942;2022-08-21T03:25:11;24.80;99.90
15554;DHT22;7878;44.632;10.942;2022-08-21T03:27:37;24.80;99.90
15554;DHT22;7878;44.632;10.942;2022-08-21T03:30:05;24.80;99.90
15554;DHT22;7878;44.632;10.942;2022-08-21T03:32:31;24.80;99.90
15554;DHT22;7878;44.632;10.942;2022-08-21T03:34:57;24.80;99.90
15554;DHT22;7878;44.632;10.942;2022-08-21T03:37:24;24.80;99.90
15554;DHT22;7878;44.632;10.942;2022-08-21T03:39:52;24.80;99.90
15554;DHT22;7878;44.632;10.942;2022-08-21T03:42:18;24.80;99.90
15554;DHT22;7878;44.632;10.942;2022-08-21T03:44:44;24.80;99.90
15554;DHT22;7878;44.632;10.942;2022-08-21T03:47:09;24.70;99.90
15554;DHT22;7878;44.632;10.942;2022-08-21T03:49:35;24.70;99.90
15554;DHT22;7878;44.632;10.942;2022-08-21T03:52:02;24.70;99.90
15554;DHT22;7878;44.632;10.942;2022-08-21T03:54:28;24.60;99.90
15554;DHT22;7878;44.632;10.942;2022-08-21T03:56:53;24.60;99.90
15554;DHT22;7878;44.632;10.942;2022-08-21T03:59:19;24.70;99.90
15554;DHT22;7878;44.632;10.942;2022-08-21T04:01:56;24.60;99.90
15554;DHT22;7878;44.632;10.942;2022-08-21T04:04:22;24.70;99.90
15554;DHT22;7878;44.632;10.942;2022-08-21T04:06:48;24.70;99.90
15554;DHT22;7878;44.632;10.942;2022-08-21T04:09:15;24.60;99.90
15554;DHT22;7878;44.632;10.942;2022-08-21T04:11:41;24.60;99.90
15554;DHT22;7878;44.632;10.942;2022-08-21T04:14:07;24.60;99.90
15554;DHT22;7878;44.632;10.942;2022-08-21T04:16:33;24.60;99.90
15554;DHT22;7878;44.632;10.942;2022-08-21T04:18:58;24.60;99.90
15554;DHT22;7878;44.632;10.942;2022-08-21T04:21:24;24.50;99.90
15554;DHT22;7878;44.632;10.942;2022-08-21T04:23:50;24.50;99.90
15554;DHT22;7878;44.632;10.942;2022-08-21T04:26:15;24.50;99.90
15554;DHT22;7878;44.632;10.942;2022-08-21T04:28:42;24.50;99.90
15554;DHT22;7878;44.632;10.942;2022-08-21T04:31:08;24.50;99.90
15554;DHT22;7878;44.632;10.942;2022-08-21T04:33:34;24.50;99.90
15554;DHT22;7878;44.632;10.942;2022-08-21T04:36:00;24.50;99.90
15554;DHT22;7878;44.632;10.942;2022-08-21T04:38:25;24.50;99.90
15554;DHT22;7878;44.632;10.942;2022-08-21T04:40:52;24.60;99.90
15554;DHT22;7878;44.632;10.942;2022-08-21T04:43:18;24.50;99.90
15554;DHT22;7878;44.632;10.942;2022-08-21T04:45:46;24.50;99.90
15554;DHT22;7878;44.632;10.942;2022-08-21T04:48:14;24.50;99.90
15554;DHT22;7878;44.632;10.942;2022-08-21T04:53:20;24.50;99.90
15554;DHT22;7878;44.632;10.942;2022-08-21T04:55:47;24.40;99.90
15554;DHT22;7878;44.632;10.942;2022-08-21T04:58:15;24.50;99.90
15554;DHT22;7878;44.632;10.942;2022-08-21T05:00:43;24.50;99.90
15554;DHT22;7878;44.632;10.942;2022-08-21T05:03:11;24.50;99.90
15554;DHT22;7878;44.632;10.942;2022-08-21T05:05:38;24.50;99.90
15554;DHT22;7878;44.632;10.942;2022-08-21T05:08:06;24.50;99.90
15554;DHT22;7878;44.632;10.942;2022-08-21T05:10:33;24.50;99.90
15554;DHT22;7878;44.632;10.942;2022-08-21T05:12:59;24.50;99.90
15554;DHT22;7878;44.632;10.942;2022-08-21T05:15:25;24.50;99.90
15554;DHT22;7878;44.632;10.942;2022-08-21T05:17:51;24.50;99.90
15554;DHT22;7878;44.632;10.942;2022-08-21T05:20:17;24.50;99.90
15554;DHT22;7878;44.632;10.942;2022-08-21T05:22:43;24.50;99.90
15554;DHT22;7878;44.632;10.942;2022-08-21T05:25:10;24.50;99.90
15554;DHT22;7878;44.632;10.942;2022-08-21T05:27:36;24.50;99.90
15554;DHT22;7878;44.632;10.942;2022-08-21T05:30:03;24.50;99.90
15554;DHT22;7878;44.632;10.942;2022-08-21T05:32:29;24.60;99.90
15554;DHT22;7878;44.632;10.942;2022-08-21T05:34:54;24.60;99.90
15554;DHT22;7878;44.632;10.942;2022-08-21T05:37:20;24.60;99.90
15554;DHT22;7878;44.632;10.942;2022-08-21T05:39:46;24.50;99.90
15554;DHT22;7878;44.632;10.942;2022-08-21T05:42:12;24.50;99.90
15554;DHT22;7878;44.632;10.942;2022-08-21T05:44:38;24.50;99.90
15554;DHT22;7878;44.632;10.942;2022-08-21T05:47:08;24.50;99.90
15554;DHT22;7878;44.632;10.942;2022-08-21T05:49:35;24.50;99.90
15554;DHT22;7878;44.632;10.942;2022-08-21T05:52:02;24.50;99.90
15554;DHT22;7878;44.632;10.942;2022-08-21T05:54:27;24.60;99.90
15554;DHT22;7878;44.632;10.942;2022-08-21T05:56:53;24.60;99.90
15554;DHT22;7878;44.632;10.942;2022-08-21T05:59:19;24.70;99.90
15554;DHT22;7878;44.632;10.942;2022-08-21T06:01:45;24.70;99.90
15554;DHT22;7878;44.632;10.942;2022-08-21T06:04:11;24.70;99.90
15554;DHT22;7878;44.632;10.942;2022-08-21T06:06:37;24.80;99.90
15554;DHT22;7878;44.632;10.942;2022-08-21T06:09:04;24.80;99.90
15554;DHT22;7878;44.632;10.942;2022-08-21T06:11:30;24.80;99.90
15554;DHT22;7878;44.632;10.942;2022-08-21T06:13:57;24.80;99.90
15554;DHT22;7878;44.632;10.942;2022-08-21T06:16:24;24.80;99.90
15554;DHT22;7878;44.632;10.942;2022-08-21T06:18:50;24.80;99.90
15554;DHT22;7878;44.632;10.942;2022-08-21T06:21:16;24.80;99.90
15554;DHT22;7878;44.632;10.942;2022-08-21T06:23:42;24.90;99.90
15554;DHT22;7878;44.632;10.942;2022-08-21T06:26:10;24.90;99.90
15554;DHT22;7878;44.632;10.942;2022-08-21T06:28:36;25.00;99.90
15554;DHT22;7878;44.632;10.942;2022-08-21T06:31:19;25.00;99.90
15554;DHT22;7878;44.632;10.942;2022-08-21T06:33:45;25.10;99.90
15554;DHT22;7878;44.632;10.942;2022-08-21T06:36:11;25.10;99.90
15554;DHT22;7878;44.632;10.942;2022-08-21T06:38:37;25.20;99.90
15554;DHT22;7878;44.632;10.942;2022-08-21T06:41:03;25.20;99.90
15554;DHT22;7878;44.632;10.942;2022-08-21T06:43:29;25.30;99.90
15554;DHT22;7878;44.632;10.942;2022-08-21T06:45:55;25.30;99.90
15554;DHT22;7878;44.632;10.942;2022-08-21T06:48:21;25.40;99.90
15554;DHT22;7878;44.632;10.942;2022-08-21T06:50:47;25.40;99.90
15554;DHT22;7878;44.632;10.942;2022-08-21T06:53:15;25.40;99.90
15554;DHT22;7878;44.632;10.942;2022-08-21T06:55:41;25.50;99.90
15554;DHT22;7878;44.632;10.942;2022-08-21T06:58:07;25.60;99.90
15554;DHT22;7878;44.632;10.942;2022-08-21T07:00:34;25.60;99.90
15554;DHT22;7878;44.632;10.942;2022-08-21T07:03:01;25.70;99.90
15554;DHT22;7878;44.632;10.942;2022-08-21T07:05:30;25.70;99.90
15554;DHT22;7878;44.632;10.942;2022-08-21T07:07:57;25.80;99.90
15554;DHT22;7878;44.632;10.942;2022-08-21T07:10:24;25.90;99.90
15554;DHT22;7878;44.632;10.942;2022-08-21T07:12:50;25.90;99.90
15554;DHT22;7878;44.632;10.942;2022-08-21T07:15:16;26.00;99.90
15554;DHT22;7878;44.632;10.942;2022-08-21T07:17:42;26.00;99.90
15554;DHT22;7878;44.632;10.942;2022-08-21T07:20:08;25.90;99.90
15554;DHT22;7878;44.632;10.942;2022-08-21T07:22:35;26.00;99.90
15554;DHT22;7878;44.632;10.942;2022-08-21T07:25:03;26.00;99.90
15554;DHT22;7878;44.632;10.942;2022-08-21T07:27:29;26.00;99.90
15554;DHT22;7878;44.632;10.942;2022-08-21T07:29:56;26.10;99.90
15554;DHT22;7878;44.632;10.942;2022-08-21T07:32:21;26.20;99.90
15554;DHT22;7878;44.632;10.942;2022-08-21T07:34:47;26.30;99.90
15554;DHT22;7878;44.632;10.942;2022-08-21T07:37:13;26.30;99.90
15554;DHT22;7878;44.632;10.942;2022-08-21T07:39:38;26.40;99.90
15554;DHT22;7878;44.632;10.942;2022-08-21T07:42:04;26.50;99.90
15554;DHT22;7878;44.632;10.942;2022-08-21T07:44:30;26.50;99.90
15554;DHT22;7878;44.632;10.942;2022-08-21T07:46:56;26.50;99.90
15554;DHT22;7878;44.632;10.942;2022-08-21T07:49:21;26.60;99.90
15554;DHT22;7878;44.632;10.942;2022-08-21T07:51:47;26.60;99.90
15554;DHT22;7878;44.632;10.942;2022-08-21T07:54:13;26.70;99.90
15554;DHT22;7878;44.632;10.942;2022-08-21T07:56:38;26.70;99.90
15554;DHT22;7878;44.632;10.942;2022-08-21T07:59:04;26.80;99.90
15554;DHT22;7878;44.632;10.942;2022-08-21T08:01:30;26.90;99.90
15554;DHT22;7878;44.632;10.942;2022-08-21T08:03:56;26.90;99.90
15554;DHT22;7878;44.632;10.942;2022-08-21T08:06:22;27.10;99.90
15554;DHT22;7878;44.632;10.942;2022-08-21T08:08:48;27.20;99.90
15554;DHT22;7878;44.632;10.942;2022-08-21T08:11:14;27.30;99.90
15554;DHT22;7878;44.632;10.942;2022-08-21T08:13:49;27.40;99.90
15554;DHT22;7878;44.632;10.942;2022-08-21T08:16:15;27.60;99.90
15554;DHT22;7878;44.632;10.942;2022-08-21T08:18:41;27.70;99.90
15554;DHT22;7878;44.632;10.942;2022-08-21T08:21:08;27.70;99.90
15554;DHT22;7878;44.632;10.942;2022-08-21T08:23:34;27.70;99.90
15554;DHT22;7878;44.632;10.942;2022-08-21T08:26:00;27.70;99.90
15554;DHT22;7878;44.632;10.942;2022-08-21T08:28:28;27.80;99.90
15554;DHT22;7878;44.632;10.942;2022-08-21T08:30:57;28.10;99.90
15554;DHT22;7878;44.632;10.942;2022-08-21T08:33:22;28.60;99.90
15554;DHT22;7878;44.632;10.942;2022-08-21T08:35:50;29.10;99.90
15554;DHT22;7878;44.632;10.942;2022-08-21T08:38:17;29.40;99.90
15554;DHT22;7878;44.632;10.942;2022-08-21T08:41:10;29.30;99.90
15554;DHT22;7878;44.632;10.942;2022-08-21T08:43:40;29.20;99.90
15554;DHT22;7878;44.632;10.942;2022-08-21T08:46:12;29.00;99.90
15554;DHT22;7878;44.632;10.942;2022-08-21T08:48:47;28.90;99.90
15554;DHT22;7878;44.632;10.942;2022-08-21T08:52:00;28.80;99.90
15554;DHT22;7878;44.632;10.942;2022-08-21T08:54:10;28.90;99.90
15554;DHT22;7878;44.632;10.942;2022-08-21T08:56:37;28.80;99.90
15554;DHT22;7878;44.632;10.942;2022-08-21T08:59:23;28.80;99.90
15554;DHT22;7878;44.632;10.942;2022-08-21T09:01:51;28.80;99.90
15554;DHT22;7878;44.632;10.942;2022-08-21T09:04:22;28.80;99.90
15554;DHT22;7878;44.632;10.942;2022-08-21T09:07:42;28.80;99.90
15554;DHT22;7878;44.632;10.942;2022-08-21T09:18:26;28.70;99.90
15554;DHT22;7878;44.632;10.942;2022-08-21T09:21:02;28.70;99.90
15554;DHT22;7878;44.632;10.942;2022-08-21T09:26:15;28.80;99.90
15554;DHT22;7878;44.632;10.942;2022-08-21T09:28:40;28.80;99.90
15554;DHT22;7878;44.632;10.942;2022-08-21T09:31:20;28.90;99.90
15554;DHT22;7878;44.632;10.942;2022-08-21T09:33:46;28.90;99.90
15554;DHT22;7878;44.632;10.942;2022-08-21T09:36:12;29.00;99.90
15554;DHT22;7878;44.632;10.942;2022-08-21T09:38:53;29.00;99.90
15554;DHT22;7878;44.632;10.942;2022-08-21T09:41:29;29.10;99.90
15554;DHT22;7878;44.632;10.942;2022-08-21T09:43:57;29.00;99.90
15554;DHT22;7878;44.632;10.942;2022-08-21T09:46:26;29.10;99.90
15554;DHT22;7878;44.632;10.942;2022-08-21T09:48:55;29.10;99.90
15554;DHT22;7878;44.632;10.942;2022-08-21T09:51:25;29.10;99.90
15554;DHT22;7878;44.632;10.942;2022-08-21T09:53:56;29.20;99.90
15554;DHT22;7878;44.632;10.942;2022-08-21T09:56:36;29.20;99.90
15554;DHT22;7878;44.632;10.942;2022-08-21T09:59:28;29.20;99.90
15554;DHT22;7878;44.632;10.942;2022-08-21T10:01:57;29.30;99.90
15554;DHT22;7878;44.632;10.942;2022-08-21T10:04:35;29.30;99.90
15554;DHT22;7878;44.632;10.942;2022-08-21T10:07:13;29.60;99.90
15554;DHT22;7878;44.632;10.942;2022-08-21T10:09:40;29.90;99.90
15554;DHT22;7878;44.632;10.942;2022-08-21T10:12:21;30.20;99.90
15554;DHT22;7878;44.632;10.942;2022-08-21T10:14:57;30.90;99.90
15554;DHT22;7878;44.632;10.942;2022-08-21T10:17:43;30.90;99.90
15554;DHT22;7878;44.632;10.942;2022-08-21T10:20:12;30.70;99.90
15554;DHT22;7878;44.632;10.942;2022-08-21T10:25:47;30.70;99.90
15554;DHT22;7878;44.632;10.942;2022-08-21T10:28:40;31.00;99.90
15554;DHT22;7878;44.632;10.942;2022-08-21T10:31:39;31.00;99.90
15554;DHT22;7878;44.632;10.942;2022-08-21T10:39:31;30.80;99.90
15554;DHT22;7878;44.632;10.942;2022-08-21T10:44:33;30.70;99.90
15554;DHT22;7878;44.632;10.942;2022-08-21T10:55:24;30.80;99.90
15554;DHT22;7878;44.632;10.942;2022-08-21T10:58:12;30.90;99.90
15554;DHT22;7878;44.632;10.942;2022-08-21T11:00:51;31.00;99.90
15554;DHT22;7878;44.632;10.942;2022-08-21T11:06:16;31.10;99.90
15554;DHT22;7878;44.632;10.942;2022-08-21T11:08:45;31.20;99.90
15554;DHT22;7878;44.632;10.942;2022-08-21T11:11:13;31.60;99.90
15554;DHT22;7878;44.632;10.942;2022-08-21T11:13:47;33.30;99.90
15554;DHT22;7878;44.632;10.942;2022-08-21T11:16:25;35.70;99.90
15554;DHT22;7878;44.632;10.942;2022-08-21T11:19:07;37.20;95.70
15554;DHT22;7878;44.632;10.942;2022-08-21T11:21:45;37.30;95.50
15554;DHT22;7878;44.632;10.942;2022-08-21T11:24:38;36.90;93.30
15554;DHT22;7878;44.632;10.942;2022-08-21T11:29:58;37.10;93.70
15554;DHT22;7878;44.632;10.942;2022-08-21T11:32:43;37.70;97.60
15554;DHT22;7878;44.632;10.942;2022-08-21T11:38:40;40.50;84.50
15554;DHT22;7878;44.632;10.942;2022-08-21T11:41:27;42.50;82.30
15554;DHT22;7878;44.632;10.942;2022-08-21T11:44:23;42.00;78.20
15554;DHT22;7878;44.632;10.942;2022-08-21T11:52:31;37.30;81.60
15554;DHT22;7878;44.632;10.942;2022-08-21T11:55:30;36.50;89.50
15554;DHT22;7878;44.632;10.942;2022-08-21T11:58:26;36.00;83.10
15554;DHT22;7878;44.632;10.942;2022-08-21T12:01:00;35.50;88.60
15554;DHT22;7878;44.632;10.942;2022-08-21T12:04:00;35.10;91.70
15554;DHT22;7878;44.632;10.942;2022-08-21T12:06:29;34.90;92.60
15554;DHT22;7878;44.632;10.942;2022-08-21T12:09:05;34.50;89.90
15554;DHT22;7878;44.632;10.942;2022-08-21T12:11:32;34.40;91.10
15554;DHT22;7878;44.632;10.942;2022-08-21T12:16:41;34.10;92.00
15554;DHT22;7878;44.632;10.942;2022-08-21T12:19:10;33.90;91.20
15554;DHT22;7878;44.632;10.942;2022-08-21T12:25:03;33.60;88.20
15554;DHT22;7878;44.632;10.942;2022-08-21T12:27:41;33.50;92.10
15554;DHT22;7878;44.632;10.942;2022-08-21T12:30:43;33.50;85.40
15554;DHT22;7878;44.632;10.942;2022-08-21T12:35:43;33.40;89.80
15554;DHT22;7878;44.632;10.942;2022-08-21T12:40:57;33.40;90.00
15554;DHT22;7878;44.632;10.942;2022-08-21T12:44:21;33.30;91.30
15554;DHT22;7878;44.632;10.942;2022-08-21T12:49:16;33.20;90.20
15554;DHT22;7878;44.632;10.942;2022-08-21T12:51:55;33.10;91.20
15554;DHT22;7878;44.632;10.942;2022-08-21T12:54:30;33.00;90.20
15554;DHT22;7878;44.632;10.942;2022-08-21T12:57:01;32.90;88.60
15554;DHT22;7878;44.632;10.942;2022-08-21T12:59:28;32.80;90.70
15554;DHT22;7878;44.632;10.942;2022-08-21T13:01:54;32.70;91.70
15554;DHT22;7878;44.632;10.942;2022-08-21T13:04:39;32.60;90.70
15554;DHT22;7878;44.632;10.942;2022-08-21T13:07:10;32.50;87.70
15554;DHT22;7878;44.632;10.942;2022-08-21T13:09:46;32.40;91.30
15554;DHT22;7878;44.632;10.942;2022-08-21T13:12:15;32.40;91.60
15554;DHT22;7878;44.632;10.942;2022-08-21T13:14:42;32.50;92.00
15554;DHT22;7878;44.632;10.942;2022-08-21T13:17:10;32.50;91.80
15554;DHT22;7878;44.632;10.942;2022-08-21T13:19:36;32.50;91.60
15554;DHT22;7878;44.632;10.942;2022-08-21T13:22:03;32.50;91.80
15554;DHT22;7878;44.632;10.942;2022-08-21T13:24:37;32.40;91.60
15554;DHT22;7878;44.632;10.942;2022-08-21T13:27:14;32.40;89.10
15554;DHT22;7878;44.632;10.942;2022-08-21T13:29:40;32.40;92.10
15554;DHT22;7878;44.632;10.942;2022-08-21T13:32:16;32.30;92.00
15554;DHT22;7878;44.632;10.942;2022-08-21T13:34:43;32.30;92.30
15554;DHT22;7878;44.632;10.942;2022-08-21T13:37:11;32.30;92.30
15554;DHT22;7878;44.632;10.942;2022-08-21T13:39:37;32.30;89.90
15554;DHT22;7878;44.632;10.942;2022-08-21T13:42:08;32.30;90.80
15554;DHT22;7878;44.632;10.942;2022-08-21T13:44:41;32.20;91.50
15554;DHT22;7878;44.632;10.942;2022-08-21T13:47:09;32.20;87.90
15554;DHT22;7878;44.632;10.942;2022-08-21T13:49:47;32.20;91.70
15554;DHT22;7878;44.632;10.942;2022-08-21T13:54:41;32.20;91.50
15554;DHT22;7878;44.632;10.942;2022-08-21T13:57:23;32.20;90.70
15554;DHT22;7878;44.632;10.942;2022-08-21T13:59:49;32.20;88.40
15554;DHT22;7878;44.632;10.942;2022-08-21T14:02:22;32.20;91.40
15554;DHT22;7878;44.632;10.942;2022-08-21T14:04:59;32.20;91.10
15554;DHT22;7878;44.632;10.942;2022-08-21T14:10:01;32.10;87.20
15554;DHT22;7878;44.632;10.942;2022-08-21T14:12:41;32.10;90.70
15554;DHT22;7878;44.632;10.942;2022-08-21T14:15:09;32.10;89.40
15554;DHT22;7878;44.632;10.942;2022-08-21T14:17:39;32.10;88.40
15554;DHT22;7878;44.632;10.942;2022-08-21T14:20:09;32.10;89.20
15554;DHT22;7878;44.632;10.942;2022-08-21T14:26:00;32.00;90.50
15554;DHT22;7878;44.632;10.942;2022-08-21T14:30:39;31.90;83.60
15554;DHT22;7878;44.632;10.942;2022-08-21T14:33:10;31.90;90.50
15554;DHT22;7878;44.632;10.942;2022-08-21T14:35:36;31.90;86.90
15554;DHT22;7878;44.632;10.942;2022-08-21T14:38:02;31.90;89.50
15554;DHT22;7878;44.632;10.942;2022-08-21T14:40:36;31.90;90.30
15554;DHT22;7878;44.632;10.942;2022-08-21T14:43:01;31.90;90.50
15554;DHT22;7878;44.632;10.942;2022-08-21T14:45:29;31.90;90.20
15554;DHT22;7878;44.632;10.942;2022-08-21T14:47:57;31.90;90.50
15554;DHT22;7878;44.632;10.942;2022-08-21T14:50:23;31.80;90.50
15554;DHT22;7878;44.632;10.942;2022-08-21T14:52:49;31.80;90.80
15554;DHT22;7878;44.632;10.942;2022-08-21T14:55:15;31.80;90.40
15554;DHT22;7878;44.632;10.942;2022-08-21T14:57:45;31.80;88.90
15554;DHT22;7878;44.632;10.942;2022-08-21T15:00:13;31.80;90.10
15554;DHT22;7878;44.632;10.942;2022-08-21T15:02:39;31.80;90.60
15554;DHT22;7878;44.632;10.942;2022-08-21T15:05:05;31.80;90.50
15554;DHT22;7878;44.632;10.942;2022-08-21T15:07:31;31.80;89.20
15554;DHT22;7878;44.632;10.942;2022-08-21T15:09:56;31.80;89.20
15554;DHT22;7878;44.632;10.942;2022-08-21T15:12:23;31.80;90.20
15554;DHT22;7878;44.632;10.942;2022-08-21T15:14:49;31.80;90.10
15554;DHT22;7878;44.632;10.942;2022-08-21T15:17:16;31.70;90.30
15554;DHT22;7878;44.632;10.942;2022-08-21T15:19:41;31.70;88.30
15554;DHT22;7878;44.632;10.942;2022-08-21T15:22:07;31.70;89.20
15554;DHT22;7878;44.632;10.942;2022-08-21T15:24:33;31.70;90.00
15554;DHT22;7878;44.632;10.942;2022-08-21T15:27:01;31.70;90.10
15554;DHT22;7878;44.632;10.942;2022-08-21T15:29:29;31.70;88.10
15554;DHT22;7878;44.632;10.942;2022-08-21T15:31:57;31.70;89.60
15554;DHT22;7878;44.632;10.942;2022-08-21T15:34:28;31.70;88.20
15554;DHT22;7878;44.632;10.942;2022-08-21T15:36:57;31.70;89.40
15554;DHT22;7878;44.632;10.942;2022-08-21T15:39:25;31.70;89.20
15554;DHT22;7878;44.632;10.942;2022-08-21T15:41:51;31.70;90.10
15554;DHT22;7878;44.632;10.942;2022-08-21T15:44:17;31.60;88.60
15554;DHT22;7878;44.632;10.942;2022-08-21T15:46:43;31.70;89.90
15554;DHT22;7878;44.632;10.942;2022-08-21T15:49:10;31.70;89.90
15554;DHT22;7878;44.632;10.942;2022-08-21T15:51:35;31.70;88.50
15554;DHT22;7878;44.632;10.942;2022-08-21T15:54:01;31.70;88.00
15554;DHT22;7878;44.632;10.942;2022-08-21T15:56:35;31.70;88.10
15554;DHT22;7878;44.632;10.942;2022-08-21T15:59:06;31.60;88.30
15554;DHT22;7878;44.632;10.942;2022-08-21T16:01:34;31.60;88.70
15554;DHT22;7878;44.632;10.942;2022-08-21T16:04:00;31.50;88.90
15554;DHT22;7878;44.632;10.942;2022-08-21T16:06:27;31.50;88.90
15554;DHT22;7878;44.632;10.942;2022-08-21T16:08:53;31.50;87.30
15554;DHT22;7878;44.632;10.942;2022-08-21T16:11:18;31.50;88.10
15554;DHT22;7878;44.632;10.942;2022-08-21T16:13:46;31.50;88.90
15554;DHT22;7878;44.632;10.942;2022-08-21T16:16:19;31.50;89.00
15554;DHT22;7878;44.632;10.942;2022-08-21T16:18:46;31.50;86.90
15554;DHT22;7878;44.632;10.942;2022-08-21T16:21:13;31.40;88.00
15554;DHT22;7878;44.632;10.942;2022-08-21T16:23:39;31.40;86.70
15554;DHT22;7878;44.632;10.942;2022-08-21T16:26:07;31.40;87.40
15554;DHT22;7878;44.632;10.942;2022-08-21T16:28:35;31.40;87.40
15554;DHT22;7878;44.632;10.942;2022-08-21T16:31:02;31.30;85.90
15554;DHT22;7878;44.632;10.942;2022-08-21T16:33:34;31.30;85.30
15554;DHT22;7878;44.632;10.942;2022-08-21T16:36:00;31.30;83.50
15554;DHT22;7878;44.632;10.942;2022-08-21T16:38:27;31.30;86.00
15554;DHT22;7878;44.632;10.942;2022-08-21T16:40:53;31.30;86.00
15554;DHT22;7878;44.632;10.942;2022-08-21T16:43:22;31.20;86.90
15554;DHT22;7878;44.632;10.942;2022-08-21T16:45:49;31.20;87.00
15554;DHT22;7878;44.632;10.942;2022-08-21T16:48:15;31.20;87.10
15554;DHT22;7878;44.632;10.942;2022-08-21T16:50:41;31.20;86.40
15554;DHT22;7878;44.632;10.942;2022-08-21T16:53:06;31.20;86.70
15554;DHT22;7878;44.632;10.942;2022-08-21T16:55:34;31.20;86.60